Time;durP1;ratioP1;P1;durP2;ratioP2;P2;SDS_P1;SDS_P2;PMS_P1;PMS_P2;Temp;Humidity;BMP_temperature;BMP_pressure;BME280_temperature;BME280_humidity;BME280_pressure;Samples;Min_cycle;Max_cycle;Signal;HPM_P1;HPM_P2
2023/08/06 00:02:18;;;;;;;3.05;2.60;;;;;;;21.26;71.63;93720.41;5076544;28;20207;-70
2023/08/06 00:04:45;;;;;;;2.72;2.58;;;;;;;21.19;71.29;93759.91;5076498;28;20205;-70
2023/08/06 00:07:13;;;;;;;3.03;2.65;;;;;;;21.20;72.08;93785.94;5077327;28;20196;-71
2023/08/06 00:09:41;;;;;;;2.70;2.50;;;;;;;21.14;72.26;93782.94;5077608;28;20189;-71
2023/08/06 00:12:08;;;;;;;3.47;2.42;;;;;;;21.16;73.28;93781.22;5077197;28;20291;-71
2023/08/06 00:14:35;;;;;;;2.67;2.47;;;;;;;21.13;72.06;93798.16;5077252;28;20185;-70
2023/08/06 00:17:05;;;;;;;3.40;2.67;;;;;;;21.12;72.90;93788.97;5076214;28;20220;-71
2023/08/06 00:19:33;;;;;;;2.50;2.30;;;;;;;21.12;73.19;93765.75;5076554;28;20275;-71
2023/08/06 00:21:59;;;;;;;2.78;2.58;;;;;;;21.11;72.76;93772.63;5076426;28;20200;-71
2023/08/06 00:24:26;;;;;;;2.75;2.45;;;;;;;21.09;72.39;93784.25;5076205;28;20197;-71
2023/08/06 00:26:54;;;;;;;2.83;2.60;;;;;;;21.10;73.09;93787.88;5076373;28;20204;-71
2023/08/06 00:29:22;;;;;;;2.67;2.47;;;;;;;21.15;73.06;93778.88;5076533;28;20193;-71
2023/08/06 00:31:49;;;;;;;2.95;2.75;;;;;;;21.13;73.27;93761.72;5076427;28;20197;-70
2023/08/06 00:34:21;;;;;;;2.80;2.60;;;;;;;21.11;72.84;93755.78;5079940;28;20596;-71
2023/08/06 00:36:48;;;;;;;2.95;2.67;;;;;;;21.09;72.96;93755.44;5097312;28;20200;-70
2023/08/06 00:39:16;;;;;;;2.83;2.63;;;;;;;21.11;73.20;93745.38;5097123;28;20180;-69
2023/08/06 00:41:44;;;;;;;3.30;2.63;;;;;;;21.11;72.94;93753.78;5097177;28;20197;-69
2023/08/06 00:44:12;;;;;;;2.67;2.55;;;;;;;21.09;73.15;93755.44;5079989;28;20200;-69
2023/08/06 00:46:40;;;;;;;3.30;3.00;;;;;;;21.15;73.90;93760.03;5079322;28;20192;-69
2023/08/06 00:49:08;;;;;;;3.03;2.80;;;;;;;21.18;73.37;93757.56;5097159;28;20192;-69
2023/08/06 00:51:38;;;;;;;3.10;2.55;;;;;;;21.12;72.76;93746.91;5097049;28;20517;-69
2023/08/06 00:54:07;;;;;;;2.80;2.60;;;;;;;21.06;73.17;93747.94;5097013;28;20215;-69
2023/08/06 00:56:36;;;;;;;3.17;2.72;;;;;;;21.06;73.64;93745.94;5097006;28;20230;-69
2023/08/06 00:59:04;;;;;;;2.95;2.75;;;;;;;21.13;74.60;93750.50;5096945;28;20241;-69
2023/08/06 01:01:32;;;;;;;3.05;2.80;;;;;;;21.10;75.06;93743.81;5096882;28;20188;-69
2023/08/06 01:04:03;;;;;;;3.88;3.03;;;;;;;21.05;74.64;93732.38;5079182;28;20196;-69
2023/08/06 01:06:40;;;;;;;3.75;3.40;;;;;;;21.04;74.28;93728.00;5078483;28;20215;-69
2023/08/06 01:09:17;;;;;;;3.70;3.40;;;;;;;21.03;74.07;93701.22;5078769;28;20211;-70
2023/08/06 01:11:52;;;;;;;4.03;3.63;;;;;;;20.97;74.28;93697.41;5078849;28;20196;-70
2023/08/06 01:14:27;;;;;;;3.55;3.25;;;;;;;20.96;74.07;93716.25;5078876;28;20203;-69
2023/08/06 01:16:55;;;;;;;3.88;3.47;;;;;;;20.99;74.33;93720.97;5078684;28;20223;-70
2023/08/06 01:19:23;;;;;;;3.58;3.28;;;;;;;20.97;75.03;93714.25;5078785;28;20200;-69
2023/08/06 01:21:55;;;;;;;3.35;3.10;;;;;;;20.91;75.01;93714.00;5078618;28;20219;-70
2023/08/06 01:24:23;;;;;;;3.50;3.20;;;;;;;20.88;74.95;93717.75;5078661;28;20192;-70
2023/08/06 01:26:58;;;;;;;4.22;3.00;;;;;;;20.86;73.70;93720.97;5078624;28;20200;-70
2023/08/06 01:29:31;;;;;;;3.38;3.08;;;;;;;20.84;74.01;93717.88;5078142;28;20191;-70
2023/08/06 01:31:59;;;;;;;3.45;3.10;;;;;;;20.81;74.51;93713.16;5096071;28;20200;-70
2023/08/06 01:34:30;;;;;;;3.60;2.95;;;;;;;20.80;75.35;93714.38;5078731;28;20192;-69
2023/08/06 01:37:07;;;;;;;3.45;3.15;;;;;;;20.78;74.76;93697.25;5078587;28;20220;-70
2023/08/06 01:39:35;;;;;;;2.97;2.78;;;;;;;20.76;75.01;93685.69;5078050;28;20196;-69
2023/08/06 01:42:03;;;;;;;3.45;3.05;;;;;;;20.77;75.41;93694.88;5078706;28;20193;-70
2023/08/06 01:44:32;;;;;;;3.60;3.30;;;;;;;20.81;75.68;93693.56;5078290;28;20208;-70
2023/08/06 01:47:02;;;;;;;3.30;3.00;;;;;;;20.79;75.19;93700.84;5078457;28;20196;-69
2023/08/06 01:49:33;;;;;;;3.63;2.88;;;;;;;20.76;75.56;93698.94;5078034;28;20261;-69
2023/08/06 01:52:04;;;;;;;3.38;3.05;;;;;;;20.79;75.15;93700.84;5078447;28;20291;-70
2023/08/06 01:54:34;;;;;;;3.13;2.92;;;;;;;20.80;75.77;93710.78;5078534;28;20181;-70
2023/08/06 01:57:03;;;;;;;3.28;2.97;;;;;;;20.80;75.55;93705.19;5077962;28;20248;-70
2023/08/06 01:59:31;;;;;;;3.55;3.08;;;;;;;20.78;76.34;93690.88;5077645;28;20196;-70
2023/08/06 02:01:59;;;;;;;3.20;2.92;;;;;;;20.73;75.08;93678.19;5078180;28;20539;-70
2023/08/06 02:04:27;;;;;;;3.05;2.85;;;;;;;20.76;75.13;93676.50;5077004;28;20200;-71
2023/08/06 02:06:55;;;;;;;3.58;3.28;;;;;;;20.73;74.10;93677.41;5078048;28;20204;-71
2023/08/06 02:09:24;;;;;;;3.13;2.83;;;;;;;20.72;75.63;93676.63;5077714;28;20215;-71
2023/08/06 02:11:52;;;;;;;3.30;3.00;;;;;;;20.70;75.60;93675.50;5077505;28;20196;-71
2023/08/06 02:14:21;;;;;;;3.75;3.05;;;;;;;20.74;75.81;93676.19;5078186;28;20207;-71
2023/08/06 02:16:51;;;;;;;3.50;3.20;;;;;;;20.75;75.89;93684.13;5077359;28;20208;-71
2023/08/06 02:19:19;;;;;;;3.80;3.30;;;;;;;20.75;75.87;93695.34;5077469;28;20192;-71
2023/08/06 02:21:47;;;;;;;3.60;2.85;;;;;;;20.73;75.33;93711.81;5077713;28;20196;-71
2023/08/06 02:24:15;;;;;;;4.45;3.70;;;;;;;20.72;75.36;93715.84;5077778;28;20211;-70
2023/08/06 02:26:43;;;;;;;4.88;2.95;;;;;;;20.75;76.03;93722.59;5077929;28;20204;-70
2023/08/06 02:29:11;;;;;;;5.03;3.42;;;;;;;20.75;76.42;93703.75;5077326;28;20200;-71
2023/08/06 02:31:43;;;;;;;5.35;3.25;;;;;;;20.72;76.47;93670.25;5077307;28;20188;-71
2023/08/06 02:34:10;;;;;;;3.60;2.90;;;;;;;20.66;76.55;93659.63;5074346;28;20251;-71
2023/08/06 02:36:38;;;;;;;3.90;2.80;;;;;;;20.65;77.19;93679.69;5074019;28;20185;-71
2023/08/06 02:39:06;;;;;;;3.38;2.97;;;;;;;20.69;77.74;93719.56;5074403;28;20189;-71
2023/08/06 02:41:37;;;;;;;4.63;3.30;;;;;;;20.73;77.37;93741.84;5073833;28;20193;-71
2023/08/06 02:44:10;;;;;;;3.35;3.05;;;;;;;20.74;77.38;93733.00;5073824;28;20216;-71
2023/08/06 02:46:36;;;;;;;3.05;2.60;;;;;;;20.73;76.95;93722.25;5074192;28;20205;-71
2023/08/06 02:49:04;;;;;;;3.00;2.78;;;;;;;20.73;77.29;93708.22;5074337;28;20193;-70
2023/08/06 02:51:32;;;;;;;2.90;2.70;;;;;;;20.74;77.81;93701.41;5073771;28;20204;-70
2023/08/06 02:54:03;;;;;;;3.00;2.80;;;;;;;20.76;77.91;93691.31;5074018;28;20208;-71
2023/08/06 02:56:33;;;;;;;4.90;3.03;;;;;;;20.77;78.52;93652.84;5074144;28;20197;-69
2023/08/06 02:59:00;;;;;;;3.08;2.65;;;;;;;20.72;79.17;93656.25;5074075;28;20235;-70
2023/08/06 03:01:31;;;;;;;2.70;2.50;;;;;;;20.72;79.14;93670.25;5073794;28;20243;-70
2023/08/06 03:03:58;;;;;;;2.80;2.60;;;;;;;20.73;78.69;93672.59;5074262;28;20601;-71
2023/08/06 03:06:28;;;;;;;2.97;2.78;;;;;;;20.76;78.36;93648.50;5073954;28;20200;-71
2023/08/06 03:08:56;;;;;;;3.83;3.53;;;;;;;20.77;78.59;93614.44;5073924;28;20207;-70
2023/08/06 03:11:24;;;;;;;3.00;2.80;;;;;;;20.77;79.01;93630.44;5073654;28;20624;-71
2023/08/06 03:13:54;;;;;;;2.83;2.63;;;;;;;20.75;78.21;93675.72;5073491;28;20205;-71
2023/08/06 03:16:25;;;;;;;2.75;2.55;;;;;;;20.77;78.18;93681.69;5076810;28;20208;-71
2023/08/06 03:18:54;;;;;;;2.88;2.67;;;;;;;20.79;77.60;93647.59;5077691;28;20209;-71
2023/08/06 03:21:23;;;;;;;2.70;2.50;;;;;;;20.78;77.76;93623.63;5077394;28;20189;-71
2023/08/06 03:23:50;;;;;;;3.90;2.92;;;;;;;20.77;78.79;93655.66;5077532;28;20193;-70
2023/08/06 03:26:18;;;;;;;3.20;2.88;;;;;;;20.78;78.51;93676.84;5077495;28;20540;-70
2023/08/06 03:28:46;;;;;;;2.97;2.78;;;;;;;20.79;78.42;93662.38;5077413;28;20667;-70
2023/08/06 03:31:14;;;;;;;3.80;2.72;;;;;;;20.81;78.60;93650.75;5077153;28;20200;-71
2023/08/06 03:33:43;;;;;;;3.22;2.90;;;;;;;20.82;79.47;93672.69;5076925;28;20232;-71
2023/08/06 03:36:14;;;;;;;3.20;3.00;;;;;;;20.81;79.27;93687.16;5077229;28;20189;-71
2023/08/06 03:38:42;;;;;;;2.80;2.60;;;;;;;20.80;80.15;93686.34;5077106;28;20255;-71
2023/08/06 03:41:10;;;;;;;2.90;2.70;;;;;;;20.82;79.36;93685.91;5076921;28;20677;-71
2023/08/06 03:43:37;;;;;;;3.15;2.85;;;;;;;20.79;78.90;93696.00;5077146;28;20632;-70
2023/08/06 03:46:05;;;;;;;3.30;2.55;;;;;;;20.72;78.12;93695.47;5076807;28;20216;-71
2023/08/06 03:48:33;;;;;;;3.35;3.00;;;;;;;20.68;77.87;93693.56;5076871;28;20201;-69
2023/08/06 03:51:02;;;;;;;2.88;2.67;;;;;;;20.65;78.66;93702.88;5076807;28;20205;-69
2023/08/06 03:53:31;;;;;;;3.33;3.03;;;;;;;20.64;79.20;93706.13;5077082;28;20197;-70
2023/08/06 03:56:00;;;;;;;3.20;3.00;;;;;;;20.63;80.20;93710.16;5077432;28;20197;-69
2023/08/06 03:58:28;;;;;;;3.28;3.00;;;;;;;20.63;80.68;93710.16;5076901;28;20312;-70
2023/08/06 04:01:00;;;;;;;4.30;3.00;;;;;;;20.62;80.79;93712.16;5076627;28;20193;-70
2023/08/06 04:03:28;;;;;;;3.25;3.05;;;;;;;20.61;80.25;93709.81;5076885;28;20193;-69
2023/08/06 04:05:56;;;;;;;3.38;3.15;;;;;;;20.62;80.79;93714.97;5076488;28;20216;-69
2023/08/06 04:08:23;;;;;;;3.28;3.05;;;;;;;20.65;81.65;93716.09;5076548;28;20197;-69
2023/08/06 04:10:53;;;;;;;3.75;3.40;;;;;;;20.64;81.68;93720.13;5076933;28;20212;-69
2023/08/06 04:13:23;;;;;;;3.20;2.90;;;;;;;20.62;80.94;93723.38;5076660;28;20209;-69
2023/08/06 04:15:51;;;;;;;3.58;3.33;;;;;;;20.60;79.86;93727.88;5076231;28;20235;-69
2023/08/06 04:18:22;;;;;;;3.22;2.92;;;;;;;20.59;79.86;93726.31;5076162;28;20227;-70
2023/08/06 04:20:52;;;;;;;3.42;3.10;;;;;;;20.63;79.57;93718.56;5076500;28;20613;-69
2023/08/06 04:23:21;;;;;;;3.65;3.45;;;;;;;20.65;79.74;93714.06;5076252;28;20280;-69
2023/08/06 04:25:49;;;;;;;6.95;5.50;;;;;;;20.66;78.83;93700.84;5075676;28;20200;-69
2023/08/06 04:28:22;;;;;;;5.30;4.90;;;;;;;20.69;78.74;93702.75;5076013;28;20189;-69
2023/08/06 04:30:53;;;;;;;5.82;5.40;;;;;;;20.67;79.04;93706.00;5076316;28;20207;-69
2023/08/06 04:33:21;;;;;;;5.13;4.72;;;;;;;20.67;79.97;93702.44;5075933;28;20604;-69
2023/08/06 04:35:55;;;;;;;4.15;3.85;;;;;;;20.71;80.36;93702.31;5075817;28;20200;-69
2023/08/06 04:38:24;;;;;;;4.20;3.85;;;;;;;20.71;80.55;93707.91;5075764;28;20262;-69
2023/08/06 04:40:52;;;;;;;4.05;3.75;;;;;;;20.72;80.46;93703.88;5075938;28;20193;-69
2023/08/06 04:43:22;;;;;;;3.90;3.60;;;;;;;20.72;80.57;93693.44;5075855;28;20201;-69
2023/08/06 04:45:50;;;;;;;3.85;3.50;;;;;;;20.71;80.66;93685.50;5075769;28;20204;-69
2023/08/06 04:48:18;;;;;;;3.58;3.38;;;;;;;20.72;81.22;93662.63;5076237;28;20185;-69
2023/08/06 04:50:47;;;;;;;3.95;3.63;;;;;;;20.72;81.05;93659.81;5075790;28;20199;-70
2023/08/06 04:53:16;;;;;;;3.60;3.30;;;;;;;20.75;79.85;93653.31;5076565;28;20185;-70
2023/08/06 04:55:43;;;;;;;3.75;3.47;;;;;;;20.73;79.41;93650.19;5075803;28;20193;-70
2023/08/06 04:58:11;;;;;;;3.60;3.30;;;;;;;20.74;79.44;93645.38;5075593;28;20232;-70
2023/08/06 05:00:43;;;;;;;3.47;3.17;;;;;;;20.76;79.84;93642.91;5075681;28;20208;-70
2023/08/06 05:03:13;;;;;;;3.45;3.15;;;;;;;20.73;80.53;93641.78;5075411;28;20209;-70
2023/08/06 05:05:41;;;;;;;3.47;3.03;;;;;;;20.72;79.86;93636.63;5075634;28;20204;-70
2023/08/06 05:08:15;;;;;;;3.40;3.20;;;;;;;20.72;79.51;93645.03;5075259;28;20197;-71
2023/08/06 05:10:44;;;;;;;4.20;3.90;;;;;;;20.73;79.16;93646.59;5075892;28;20270;-70
2023/08/06 05:13:12;;;;;;;4.70;4.30;;;;;;;20.73;78.67;93649.41;5075325;28;20201;-70
2023/08/06 05:15:46;;;;;;;4.93;4.53;;;;;;;20.73;78.76;93652.97;5075121;28;20633;-69
2023/08/06 05:18:16;;;;;;;5.65;4.93;;;;;;;20.73;79.04;93655.78;5075307;28;20221;-69
2023/08/06 05:20:44;;;;;;;5.88;5.35;;;;;;;20.73;79.22;93655.78;5076180;28;20280;-69
2023/08/06 05:23:14;;;;;;;6.50;5.90;;;;;;;20.72;79.59;93659.81;5074999;28;20193;-69
2023/08/06 05:25:44;;;;;;;8.32;6.45;;;;;;;20.68;80.30;93671.16;5075205;28;20181;-69
2023/08/06 05:28:11;;;;;;;8.52;7.72;;;;;;;20.74;79.76;93656.59;5075115;28;20610;-70
2023/08/06 05:30:42;;;;;;;8.52;7.13;;;;;;;20.74;80.05;93650.97;5074958;28;20208;-71
2023/08/06 05:33:09;;;;;;;8.88;8.07;;;;;;;20.78;80.02;93654.44;5074868;28;20220;-71
2023/08/06 05:35:40;;;;;;;8.40;7.70;;;;;;;20.84;79.47;93664.63;5075068;28;20259;-70
2023/08/06 05:38:08;;;;;;;7.38;6.78;;;;;;;20.86;78.66;93659.34;5074301;28;20530;-70
2023/08/06 05:40:36;;;;;;;7.07;6.47;;;;;;;20.93;77.97;93655.50;5074788;28;20189;-70
2023/08/06 05:43:05;;;;;;;6.93;6.30;;;;;;;21.01;77.15;93644.81;5074924;28;20242;-70
2023/08/06 05:45:35;;;;;;;5.45;5.05;;;;;;;21.08;77.23;93653.75;5074854;28;20197;-70
2023/08/06 05:48:05;;;;;;;4.13;3.83;;;;;;;21.12;76.44;93643.19;5074617;28;20201;-70
2023/08/06 05:50:34;;;;;;;5.20;4.80;;;;;;;21.15;75.96;93653.50;5074983;28;20197;-70
2023/08/06 05:53:04;;;;;;;4.13;3.83;;;;;;;21.18;75.41;93663.03;5074915;28;20200;-70
2023/08/06 05:55:36;;;;;;;4.82;4.43;;;;;;;21.21;74.76;93664.16;5074357;28;20203;-70
2023/08/06 05:58:04;;;;;;;3.88;3.58;;;;;;;21.21;74.21;93669.75;5074855;28;20254;-70
2023/08/06 06:00:35;;;;;;;3.60;3.30;;;;;;;21.24;73.82;93661.22;5075649;28;20193;-70
2023/08/06 06:03:07;;;;;;;4.20;3.40;;;;;;;21.32;73.28;93668.13;5074464;28;20269;-70
2023/08/06 06:05:35;;;;;;;3.30;3.10;;;;;;;21.37;72.85;93683.59;5074223;28;20209;-70
2023/08/06 06:08:04;;;;;;;3.60;3.30;;;;;;;21.45;73.04;93676.50;5074604;28;20201;-70
2023/08/06 06:10:35;;;;;;;3.70;3.50;;;;;;;21.49;72.46;93679.16;5075401;28;20204;-70
2023/08/06 06:13:03;;;;;;;3.90;3.60;;;;;;;21.53;72.56;93677.81;5075199;28;20288;-70
2023/08/06 06:15:34;;;;;;;3.65;3.45;;;;;;;21.54;71.25;93690.59;5074369;28;20540;-71
2023/08/06 06:18:04;;;;;;;3.70;3.40;;;;;;;21.51;70.49;93685.13;5074968;28;20181;-70
2023/08/06 06:20:37;;;;;;;4.00;3.70;;;;;;;21.52;70.22;93690.25;5075029;28;20659;-70
2023/08/06 06:23:06;;;;;;;3.28;3.08;;;;;;;21.50;69.45;93708.81;5075545;28;20196;-70
2023/08/06 06:25:33;;;;;;;3.45;3.25;;;;;;;21.52;70.39;93715.50;5074006;28;20652;-70
2023/08/06 06:28:04;;;;;;;3.58;3.28;;;;;;;21.55;70.13;93722.22;5074459;28;20294;-71
2023/08/06 06:30:32;;;;;;;3.47;3.17;;;;;;;21.55;69.08;93713.81;5074217;28;20197;-70
2023/08/06 06:33:00;;;;;;;3.08;2.85;;;;;;;21.51;69.39;93722.34;5084629;28;20243;-69
2023/08/06 06:35:28;;;;;;;3.55;3.35;;;;;;;21.58;69.96;93721.31;5095355;28;20184;-69
2023/08/06 06:38:00;;;;;;;3.70;3.40;;;;;;;21.60;69.60;93722.41;5095033;28;20204;-68
2023/08/06 06:40:30;;;;;;;3.38;3.17;;;;;;;21.65;69.54;93731.50;5095385;28;20289;-69
2023/08/06 06:43:00;;;;;;;4.03;3.70;;;;;;;21.58;68.67;93733.31;5094999;28;20604;-69
2023/08/06 06:45:28;;;;;;;3.80;3.53;;;;;;;21.56;68.13;93749.03;5077367;28;20214;-69
2023/08/06 06:47:56;;;;;;;3.90;3.47;;;;;;;21.50;67.89;93746.03;5095191;28;20177;-69
2023/08/06 06:50:28;;;;;;;3.55;3.30;;;;;;;21.47;67.77;93735.72;5081205;28;20196;-69
2023/08/06 06:53:02;;;;;;;3.55;3.35;;;;;;;21.46;67.74;93739.78;5081460;28;20208;-68
2023/08/06 06:55:35;;;;;;;3.33;3.10;;;;;;;21.49;67.38;93749.28;5081545;28;20291;-68
2023/08/06 06:58:09;;;;;;;3.50;3.20;;;;;;;21.52;67.42;93749.16;5081429;28;20600;-68
2023/08/06 07:00:40;;;;;;;3.40;3.10;;;;;;;21.58;66.43;93754.97;5081711;28;20241;-68
2023/08/06 07:03:10;;;;;;;3.10;2.90;;;;;;;21.62;66.01;93764.84;5081041;28;20196;-68
2023/08/06 07:05:40;;;;;;;3.80;3.47;;;;;;;21.65;65.70;93767.97;5099099;28;20180;-68
2023/08/06 07:08:08;;;;;;;3.88;3.58;;;;;;;21.58;63.88;93769.00;5099083;28;20180;-68
2023/08/06 07:10:38;;;;;;;3.53;3.22;;;;;;;21.55;64.28;93773.50;5080964;28;20265;-68
2023/08/06 07:13:06;;;;;;;3.33;3.13;;;;;;;21.58;63.79;93774.63;5098953;28;20207;-68
2023/08/06 07:15:37;;;;;;;4.13;3.40;;;;;;;21.63;64.28;93786.03;5098841;28;20207;-68
2023/08/06 07:18:07;;;;;;;3.75;3.53;;;;;;;21.65;63.22;93782.00;5098996;28;20188;-68
2023/08/06 07:20:38;;;;;;;3.10;2.90;;;;;;;21.66;63.08;93784.34;5080949;28;20216;-68
2023/08/06 07:23:05;;;;;;;3.80;3.50;;;;;;;21.67;63.05;93788.72;5098833;28;20192;-68
2023/08/06 07:25:36;;;;;;;3.33;3.05;;;;;;;21.68;63.58;93781.06;5080782;28;20240;-68
2023/08/06 07:28:12;;;;;;;3.70;3.40;;;;;;;21.70;63.49;93787.81;5098888;28;20203;-68
2023/08/06 07:30:42;;;;;;;3.25;3.05;;;;;;;21.76;63.61;93794.41;5098775;28;20265;-68
2023/08/06 07:33:12;;;;;;;3.22;3.03;;;;;;;21.75;62.67;93784.44;5098622;28;20240;-68
2023/08/06 07:35:40;;;;;;;3.35;3.08;;;;;;;21.69;61.57;93788.25;5080678;28;20204;-68
2023/08/06 07:38:10;;;;;;;3.30;3.10;;;;;;;21.66;61.84;93787.16;5080960;28;20200;-68
2023/08/06 07:40:38;;;;;;;4.00;3.70;;;;;;;21.71;62.01;93783.75;5080905;28;20216;-68
2023/08/06 07:43:10;;;;;;;3.45;3.25;;;;;;;21.72;61.85;93779.72;5098467;28;20199;-68
2023/08/06 07:45:40;;;;;;;3.58;3.30;;;;;;;21.76;62.83;93774.75;5098372;28;20267;-68
2023/08/06 07:48:10;;;;;;;3.35;3.15;;;;;;;21.84;62.68;93781.66;5081143;28;20192;-68
2023/08/06 07:50:38;;;;;;;3.47;3.17;;;;;;;21.93;62.34;93777.34;5080827;28;20202;-68
2023/08/06 07:53:08;;;;;;;3.28;2.97;;;;;;;22.02;62.02;93771.81;5080742;28;20189;-67
2023/08/06 07:55:39;;;;;;;3.75;3.15;;;;;;;22.12;62.09;93773.44;5080265;28;20208;-67
2023/08/06 07:58:11;;;;;;;3.17;2.97;;;;;;;22.14;61.15;93779.41;5097999;28;20187;-68
2023/08/06 08:00:42;;;;;;;3.42;3.17;;;;;;;22.11;59.74;93771.84;5097276;28;20223;-68
2023/08/06 08:03:13;;;;;;;3.50;3.22;;;;;;;22.10;60.91;93770.28;5097785;28;20184;-68
2023/08/06 08:05:44;;;;;;;3.40;3.08;;;;;;;22.13;60.71;93763.75;5080254;28;20192;-68
2023/08/06 08:08:14;;;;;;;3.50;3.20;;;;;;;22.18;60.58;93756.78;5080331;28;20184;-68
2023/08/06 08:10:45;;;;;;;3.50;3.20;;;;;;;22.24;60.91;93761.34;5097582;28;20185;-68
2023/08/06 08:13:15;;;;;;;3.70;3.50;;;;;;;22.33;60.15;93760.63;5079970;28;20646;-67
2023/08/06 08:15:46;;;;;;;3.15;2.95;;;;;;;22.41;60.84;93759.13;5097408;28;20215;-68
2023/08/06 08:18:14;;;;;;;5.18;2.90;;;;;;;22.50;61.45;93763.97;5079702;28;20196;-68
2023/08/06 08:20:42;;;;;;;3.22;2.90;;;;;;;22.67;60.91;93762.50;5079576;28;20648;-68
2023/08/06 08:23:10;;;;;;;2.95;2.75;;;;;;;22.84;61.91;93754.59;5097755;28;20196;-68
2023/08/06 08:25:38;;;;;;;2.97;2.67;;;;;;;22.95;62.31;93759.78;5097351;28;20181;-68
2023/08/06 08:28:06;;;;;;;3.35;3.05;;;;;;;22.99;61.33;93758.41;5079489;28;20249;-68
2023/08/06 08:30:34;;;;;;;3.20;2.90;;;;;;;23.03;61.17;93758.25;5097558;28;20199;-68
2023/08/06 08:33:02;;;;;;;3.47;3.17;;;;;;;22.99;61.12;93766.84;5097104;28;20244;-68
2023/08/06 08:35:32;;;;;;;3.45;3.15;;;;;;;22.96;61.45;93764.94;5097294;28;20265;-68
2023/08/06 08:37:59;;;;;;;3.10;2.90;;;;;;;22.94;61.40;93759.00;5097580;28;20191;-68
2023/08/06 08:40:35;;;;;;;3.50;3.20;;;;;;;22.94;61.19;93758.22;5079613;28;20647;-68
2023/08/06 08:43:03;;;;;;;4.22;3.65;;;;;;;22.94;61.60;93761.03;5096982;28;20200;-68
2023/08/06 08:45:31;;;;;;;3.47;3.13;;;;;;;22.95;58.71;93756.97;5079460;28;20200;-68
2023/08/06 08:48:04;;;;;;;3.50;3.30;;;;;;;22.98;58.91;93748.38;5097132;28;20193;-68
2023/08/06 08:50:32;;;;;;;3.55;3.35;;;;;;;23.05;59.48;93748.09;5096814;28;20245;-68
2023/08/06 08:52:59;;;;;;;3.22;2.97;;;;;;;23.18;60.01;93735.94;5096871;28;20535;-67
2023/08/06 08:55:26;;;;;;;3.42;3.10;;;;;;;23.26;60.11;93740.78;5079105;28;20200;-67
2023/08/06 08:57:56;;;;;;;5.15;4.65;;;;;;;23.37;59.59;93740.31;5079579;28;20218;-68
2023/08/06 09:00:25;;;;;;;5.88;4.35;;;;;;;23.45;59.91;93730.31;5096747;28;20239;-67
2023/08/06 09:02:56;;;;;;;5.05;3.65;;;;;;;23.50;59.63;93734.56;5096568;28;20185;-67
2023/08/06 09:05:35;;;;;;;4.30;3.90;;;;;;;23.57;59.52;93730.63;5096434;28;20184;-67
2023/08/06 09:08:06;;;;;;;4.32;3.70;;;;;;;23.67;58.89;93729.41;5078868;28;20287;-67
2023/08/06 09:10:38;;;;;;;3.85;3.55;;;;;;;23.63;56.19;93728.75;5079005;28;20239;-67
2023/08/06 09:13:12;;;;;;;3.75;3.45;;;;;;;23.64;55.52;93725.50;5077918;28;20196;-67
2023/08/06 09:15:40;;;;;;;4.45;3.97;;;;;;;23.64;55.77;93725.50;5078809;28;20595;-67
2023/08/06 09:18:13;;;;;;;3.58;3.30;;;;;;;23.64;56.27;93724.69;5078932;28;20196;-67
2023/08/06 09:20:43;;;;;;;5.30;4.82;;;;;;;23.75;56.44;93727.84;5096480;28;20220;-67
2023/08/06 09:23:14;;;;;;;4.10;3.80;;;;;;;23.86;55.68;93716.13;5078612;28;20196;-67
2023/08/06 09:25:42;;;;;;;4.20;3.90;;;;;;;23.94;54.22;93715.31;5096001;28;20757;-67
2023/08/06 09:28:11;;;;;;;3.60;3.30;;;;;;;24.00;52.96;93716.25;5078821;28;20195;-67
2023/08/06 09:30:40;;;;;;;3.40;3.20;;;;;;;24.08;53.33;93721.53;5096070;28;20210;-67
2023/08/06 09:33:10;;;;;;;3.90;3.60;;;;;;;24.17;49.84;93721.50;5096060;28;20312;-67
2023/08/06 09:35:38;;;;;;;3.10;2.90;;;;;;;24.11;49.27;93712.94;5058374;28;20221;-67
2023/08/06 09:38:14;;;;;;;5.05;4.55;;;;;;;23.98;50.16;93715.91;5058215;28;20208;-67
2023/08/06 09:40:43;;;;;;;3.40;3.17;;;;;;;23.92;51.45;93705.75;5075603;28;20527;-67
2023/08/06 09:43:15;;;;;;;5.53;5.03;;;;;;;23.91;51.46;93709.84;5075827;28;20189;-67
2023/08/06 09:45:46;;;;;;;3.35;3.05;;;;;;;23.85;52.23;93701.22;5075729;28;20189;-67
2023/08/06 09:48:17;;;;;;;3.55;3.25;;;;;;;23.93;53.20;93707.31;5057816;28;20204;-67
2023/08/06 09:50:47;;;;;;;2.72;2.53;;;;;;;24.14;52.51;93699.91;5075706;28;20177;-67
2023/08/06 09:53:19;;;;;;;3.30;3.00;;;;;;;24.21;52.40;93706.00;5057860;28;20201;-67
2023/08/06 09:55:47;;;;;;;2.97;2.78;;;;;;;24.18;50.60;93709.78;5075660;28;20264;-67
2023/08/06 09:58:16;;;;;;;4.47;4.07;;;;;;;24.10;50.19;93704.94;5075629;28;20204;-67
2023/08/06 10:00:44;;;;;;;3.90;3.50;;;;;;;24.09;50.91;93714.66;5057913;28;20233;-67
2023/08/06 10:03:15;;;;;;;3.83;3.53;;;;;;;24.02;50.71;93708.06;5074630;28;20197;-67
2023/08/06 10:05:46;;;;;;;4.65;4.25;;;;;;;23.93;50.27;93716.56;5075135;28;20597;-67
2023/08/06 10:08:16;;;;;;;2.80;2.60;;;;;;;23.87;50.44;93726.13;5057672;28;20193;-67
2023/08/06 10:10:49;;;;;;;2.60;2.40;;;;;;;23.93;51.51;93722.19;5075188;28;20672;-67
2023/08/06 10:13:20;;;;;;;2.97;2.78;;;;;;;24.11;48.37;93729.03;5057825;28;20293;-68
2023/08/06 10:15:49;;;;;;;3.92;3.63;;;;;;;24.28;49.65;93730.22;5057733;28;20592;-67
2023/08/06 10:18:21;;;;;;;2.85;2.65;;;;;;;24.38;48.67;93719.72;5055759;28;20299;-70
2023/08/06 10:20:48;;;;;;;2.90;2.70;;;;;;;24.36;48.57;93722.22;5075114;28;20229;-68
2023/08/06 10:23:20;;;;;;;3.00;2.80;;;;;;;24.27;47.84;93720.22;5057776;28;20578;-67
2023/08/06 10:25:55;;;;;;;4.15;3.00;;;;;;;24.20;48.92;93721.34;5057423;28;20227;-67
2023/08/06 10:28:38;;;;;;;2.75;2.50;;;;;;;24.25;50.38;93715.03;5075177;28;20185;-67
2023/08/06 10:31:07;;;;;;;3.95;2.92;;;;;;;24.31;50.24;93726.47;5057526;28;20533;-67
2023/08/06 10:33:46;;;;;;;2.80;2.60;;;;;;;24.25;50.19;93725.53;5052931;28;20299;-67
2023/08/06 10:36:18;;;;;;;3.00;2.80;;;;;;;24.37;51.99;93726.63;5055863;28;20209;-67
2023/08/06 10:38:49;;;;;;;2.70;2.50;;;;;;;24.44;51.40;93731.94;5055124;28;20272;-67
2023/08/06 10:41:27;;;;;;;3.05;2.80;;;;;;;24.47;51.56;93725.34;5055045;28;20232;-67
2023/08/06 10:44:07;;;;;;;2.63;2.40;;;;;;;24.54;52.02;93741.91;5054931;28;20190;-67
2023/08/06 10:46:37;;;;;;;3.22;2.45;;;;;;;24.54;52.51;93738.31;5054155;28;20194;-67
2023/08/06 10:49:07;;;;;;;3.00;2.70;;;;;;;24.54;52.11;93743.94;5054113;28;20554;-67
2023/08/06 10:51:37;;;;;;;2.70;2.50;;;;;;;24.61;52.37;93749.25;5053943;28;20194;-67
2023/08/06 10:54:06;;;;;;;2.83;2.63;;;;;;;24.67;52.10;93744.53;5054887;28;20198;-67
2023/08/06 10:56:44;;;;;;;2.55;2.40;;;;;;;24.75;51.92;93751.38;5055235;28;20190;-67
2023/08/06 10:59:17;;;;;;;2.90;2.70;;;;;;;24.91;52.63;93753.81;5054802;28;20200;-67
2023/08/06 11:01:44;;;;;;;2.90;2.70;;;;;;;25.03;52.20;93756.88;5054492;28;20255;-67
2023/08/06 11:04:15;;;;;;;3.20;2.90;;;;;;;24.97;51.71;93768.03;5053637;28;20201;-67
2023/08/06 11:06:44;;;;;;;3.22;2.90;;;;;;;24.90;51.24;93763.50;5054097;28;20303;-67
2023/08/06 11:09:14;;;;;;;4.93;3.28;;;;;;;24.85;51.77;93769.81;5054913;28;20190;-67
2023/08/06 11:11:47;;;;;;;3.30;3.10;;;;;;;24.87;52.30;93767.28;5053839;28;20229;-67
2023/08/06 11:14:17;;;;;;;3.97;3.67;;;;;;;24.78;52.95;93775.03;5053706;28;20201;-67
2023/08/06 11:16:46;;;;;;;3.70;3.38;;;;;;;24.52;52.22;93783.13;5053839;28;20206;-67
2023/08/06 11:19:16;;;;;;;4.07;3.08;;;;;;;24.29;51.25;93793.75;5054715;28;20186;-68
2023/08/06 11:21:44;;;;;;;3.75;3.35;;;;;;;23.99;52.20;93787.88;5054241;28;20295;-67
2023/08/06 11:24:15;;;;;;;3.30;3.10;;;;;;;23.79;53.95;93787.59;5054991;28;20212;-67
2023/08/06 11:26:44;;;;;;;3.60;3.30;;;;;;;23.60;54.81;93791.59;5053549;28;20654;-67
2023/08/06 11:29:12;;;;;;;4.10;3.80;;;;;;;23.46;55.66;93790.22;5054263;28;20189;-67
2023/08/06 11:31:39;;;;;;;3.25;3.05;;;;;;;23.34;55.94;93780.63;5054172;28;20493;-70
2023/08/06 11:34:11;;;;;;;3.92;3.63;;;;;;;23.33;56.85;93786.75;5069886;28;20240;-70
2023/08/06 11:36:42;;;;;;;4.38;3.97;;;;;;;23.36;56.16;93777.38;5055382;28;20202;-70
2023/08/06 11:39:13;;;;;;;3.75;3.55;;;;;;;23.41;56.49;93783.16;5057013;28;20205;-69
2023/08/06 11:41:44;;;;;;;4.00;3.70;;;;;;;23.48;55.86;93768.78;5057162;28;20660;-69
2023/08/06 11:44:14;;;;;;;3.80;3.50;;;;;;;23.66;55.59;93767.22;5057756;28;20202;-69
2023/08/06 11:46:55;;;;;;;3.72;3.50;;;;;;;23.91;57.49;93764.09;5058179;28;20201;-69